Time;durP1;ratioP1;P1;durP2;ratioP2;P2;SDS_P1;SDS_P2;PMS_P1;PMS_P2;Temp;Humidity;BMP_temperature;BMP_pressure;BME280_temperature;BME280_humidity;BME280_pressure;Samples;Min_cycle;Max_cycle;Signal;HPM_P1;HPM_P2
2023/03/07 00:01:31;;;;;;;9.77;1.52;;;;;;;;;;5030146;28;20033;-41
2023/03/07 00:03:59;;;;;;;9.32;1.75;;;;;;;;;;5029436;28;20120;-43
2023/03/07 00:06:26;;;;;;;8.82;1.60;;;;;;;;;;5030274;28;20033;-42
2023/03/07 00:08:54;;;;;;;4.68;1.33;;;;;;;;;;5030324;28;20021;-43
2023/03/07 00:11:20;;;;;;;10.52;1.95;;;;;;;;;;5029917;28;20060;-45
2023/03/07 00:13:48;;;;;;;17.30;2.70;;;;;;;;;;5029734;28;20033;-43
2023/03/07 00:16:16;;;;;;;19.00;4.93;;;;;;;;;;5030387;28;20033;-43
2023/03/07 00:18:43;;;;;;;25.77;5.82;;;;;;;;;;5029793;28;20098;-44
2023/03/07 00:21:12;;;;;;;18.65;2.50;;;;;;;;;;5030265;28;20033;-42
2023/03/07 00:23:42;;;;;;;23.50;5.32;;;;;;;;;;5029530;28;20049;-42
2023/03/07 00:26:12;;;;;;;18.80;4.47;;;;;;;;;;5027221;28;20049;-42
2023/03/07 00:28:40;;;;;;;14.15;4.47;;;;;;;;;;5028966;28;20099;-44
2023/03/07 00:31:08;;;;;;;13.90;3.60;;;;;;;;;;5029440;28;20368;-42
2023/03/07 00:33:35;;;;;;;11.18;3.35;;;;;;;;;;5029406;28;20030;-46
2023/03/07 00:36:06;;;;;;;9.88;3.58;;;;;;;;;;5029171;28;20026;-44
2023/03/07 00:38:34;;;;;;;13.80;3.80;;;;;;;;;;5017105;28;20391;-41
2023/03/07 00:41:03;;;;;;;11.57;3.33;;;;;;;;;;5029641;28;20525;-43
2023/03/07 00:43:30;;;;;;;6.38;2.92;;;;;;;;;;5045404;28;20038;-44
2023/03/07 00:45:57;;;;;;;9.60;2.70;;;;;;;;;;5029550;28;20033;-44
2023/03/07 00:48:24;;;;;;;10.98;3.08;;;;;;;;;;5024215;28;20065;-44
2023/03/07 00:50:51;;;;;;;6.35;2.30;;;;;;;;;;5028804;28;20029;-44
2023/03/07 00:53:19;;;;;;;8.23;2.63;;;;;;;;;;5028821;28;20032;-44
2023/03/07 00:55:59;;;;;;;9.00;2.63;;;;;;;;;;5027964;28;20025;-40
2023/03/07 00:58:27;;;;;;;17.23;2.33;;;;;;;;;;5019333;28;20026;-44
2023/03/07 01:00:54;;;;;;;8.25;2.40;;;;;;;;;;5029535;28;20483;-42
2023/03/07 01:03:22;;;;;;;11.27;3.13;;;;;;;;;;5029798;28;20512;-43
2023/03/07 01:05:50;;;;;;;9.35;2.20;;;;;;;;;;5028465;28;20025;-42
2023/03/07 01:08:18;;;;;;;8.90;2.47;;;;;;;;;;5028613;28;20025;-48
2023/03/07 01:10:47;;;;;;;7.10;2.63;;;;;;;;;;5029735;28;20025;-42
2023/03/07 01:13:15;;;;;;;13.10;2.63;;;;;;;;;;5029531;28;20143;-40
2023/03/07 01:15:42;;;;;;;6.15;2.13;;;;;;;;;;5024106;28;20030;-45
2023/03/07 01:18:09;;;;;;;10.93;2.45;;;;;;;;;;5022242;28;20087;-44
2023/03/07 01:20:37;;;;;;;9.82;2.47;;;;;;;;;;5023780;28;20555;-41
2023/03/07 01:23:04;;;;;;;8.70;2.42;;;;;;;;;;5022552;28;20510;-44
2023/03/07 01:25:32;;;;;;;8.63;2.28;;;;;;;;;;5023605;28;20025;-40
2023/03/07 01:27:59;;;;;;;8.20;2.80;;;;;;;;;;5025737;28;20414;-41
2023/03/07 01:30:26;;;;;;;6.80;2.50;;;;;;;;;;5027252;28;20129;-41
2023/03/07 01:32:56;;;;;;;7.32;2.55;;;;;;;;;;5031730;28;20025;-43
2023/03/07 01:35:24;;;;;;;10.35;2.85;;;;;;;;;;5031785;28;20026;-41
2023/03/07 01:37:51;;;;;;;7.90;2.95;;;;;;;;;;5031585;28;20044;-41
2023/03/07 01:40:19;;;;;;;11.07;2.83;;;;;;;;;;5031235;28;20022;-41
2023/03/07 01:42:47;;;;;;;11.18;2.97;;;;;;;;;;5030796;28;20448;-43
2023/03/07 01:45:13;;;;;;;7.57;2.45;;;;;;;;;;5032553;28;20488;-44
2023/03/07 01:47:42;;;;;;;9.90;2.60;;;;;;;;;;5032781;28;20030;-40
2023/03/07 01:50:12;;;;;;;5.88;2.30;;;;;;;;;;5032710;28;20033;-40
2023/03/07 01:52:44;;;;;;;3.90;2.03;;;;;;;;;;5027975;28;20032;-41
2023/03/07 01:55:11;;;;;;;;;;;;;;;;;;5029601;28;20037;-44
2023/03/07 01:57:39;;;;;;;4.93;2.25;;;;;;;;;;5029187;28;19928;-44
2023/03/07 02:00:09;;;;;;;9.93;2.47;;;;;;;;;;5031902;28;20384;-45
2023/03/07 02:02:37;;;;;;;7.85;2.40;;;;;;;;;;5030566;28;20520;-41
2023/03/07 02:05:16;;;;;;;5.93;2.08;;;;;;;;;;5029282;28;20034;-42
2023/03/07 02:07:46;;;;;;;5.70;2.10;;;;;;;;;;5022257;28;20486;-44
2023/03/07 02:10:14;;;;;;;9.45;2.25;;;;;;;;;;5032629;28;20029;-41
2023/03/07 02:12:41;;;;;;;4.38;1.85;;;;;;;;;;5031172;28;20029;-42
2023/03/07 02:15:09;;;;;;;4.90;1.90;;;;;;;;;;5029231;28;20025;-44
2023/03/07 02:17:37;;;;;;;5.13;2.20;;;;;;;;;;5031157;28;20022;-47
2023/03/07 02:20:04;;;;;;;6.05;1.90;;;;;;;;;;5030561;28;20509;-44
2023/03/07 02:22:31;;;;;;;5.38;1.90;;;;;;;;;;5032009;28;20045;-42
2023/03/07 02:25:01;;;;;;;7.50;2.35;;;;;;;;;;5031230;28;20534;-42
2023/03/07 02:27:29;;;;;;;8.73;2.40;;;;;;;;;;5033119;28;20028;-42
2023/03/07 02:29:56;;;;;;;5.82;2.20;;;;;;;;;;5032859;28;20025;-43
2023/03/07 02:32:23;;;;;;;5.05;2.03;;;;;;;;;;5032966;28;20044;-42
2023/03/07 02:34:50;;;;;;;8.60;1.80;;;;;;;;;;5032829;28;20135;-42
2023/03/07 02:37:20;;;;;;;5.60;1.85;;;;;;;;;;5032976;28;20025;-42
2023/03/07 02:39:48;;;;;;;3.78;1.60;;;;;;;;;;5032759;28;20041;-42
2023/03/07 02:42:21;;;;;;;4.50;1.65;;;;;;;;;;5032693;28;20075;-42
2023/03/07 02:44:55;;;;;;;5.03;1.88;;;;;;;;;;5032761;28;20032;-42
2023/03/07 02:47:22;;;;;;;7.32;1.70;;;;;;;;;;5032669;28;20395;-42
2023/03/07 02:49:49;;;;;;;4.85;1.73;;;;;;;;;;5032544;28;20025;-42
2023/03/07 02:52:16;;;;;;;6.63;1.40;;;;;;;;;;5032560;28;20036;-42
2023/03/07 02:54:43;;;;;;;4.80;1.77;;;;;;;;;;5032626;28;20031;-42
2023/03/07 02:57:10;;;;;;;5.88;2.00;;;;;;;;;;5032623;28;20143;-43
2023/03/07 02:59:37;;;;;;;7.22;1.75;;;;;;;;;;5032367;28;20025;-42
2023/03/07 03:02:04;;;;;;;4.93;1.98;;;;;;;;;;5032383;28;20037;-44
2023/03/07 03:04:31;;;;;;;6.25;2.10;;;;;;;;;;5047649;28;20068;-43
2023/03/07 03:06:58;;;;;;;5.95;2.40;;;;;;;;;;5032294;28;20065;-43
2023/03/07 03:09:26;;;;;;;6.97;2.40;;;;;;;;;;5047872;28;20034;-45
2023/03/07 03:11:53;;;;;;;6.95;2.30;;;;;;;;;;5032227;28;20064;-45
2023/03/07 03:14:20;;;;;;;10.18;2.95;;;;;;;;;;5032202;28;20029;-45
2023/03/07 03:16:47;;;;;;;19.73;2.67;;;;;;;;;;5032258;28;20075;-45
2023/03/07 03:19:14;;;;;;;4.68;2.13;;;;;;;;;;5032147;28;20029;-45
2023/03/07 03:21:41;;;;;;;3.97;2.10;;;;;;;;;;5031916;28;20076;-44
2023/03/07 03:24:08;;;;;;;7.20;1.92;;;;;;;;;;5032057;28;20503;-43
2023/03/07 03:26:36;;;;;;;6.97;2.03;;;;;;;;;;5031939;28;20104;-42
2023/03/07 03:29:04;;;;;;;5.95;1.70;;;;;;;;;;5031983;28;20075;-42
2023/03/07 03:31:31;;;;;;;6.63;2.10;;;;;;;;;;5031788;28;20041;-42
2023/03/07 03:33:59;;;;;;;6.13;2.10;;;;;;;;;;5031836;28;20026;-44
2023/03/07 03:36:27;;;;;;;7.80;1.60;;;;;;;;;;5031838;28;20022;-45
2023/03/07 03:38:57;;;;;;;6.30;1.80;;;;;;;;;;5031784;28;20021;-44
2023/03/07 03:41:25;;;;;;;4.70;1.70;;;;;;;;;;5031609;28;20033;-45
2023/03/07 03:43:52;;;;;;;3.55;1.20;;;;;;;;;;5031270;28;20044;-46
2023/03/07 03:46:19;;;;;;;5.68;1.52;;;;;;;;;;5031467;28;20030;-44
2023/03/07 03:48:53;;;;;;;4.18;1.48;;;;;;;;;;5031238;28;20026;-44
2023/03/07 03:51:20;;;;;;;5.07;1.60;;;;;;;;;;5031512;28;20503;-46
2023/03/07 03:53:47;;;;;;;4.68;1.17;;;;;;;;;;5031602;28;20049;-44
2023/03/07 03:56:19;;;;;;;6.70;1.50;;;;;;;;;;5031497;28;20033;-44
2023/03/07 03:58:53;;;;;;;2.72;1.20;;;;;;;;;;5031345;28;20095;-44
2023/03/07 04:01:20;;;;;;;4.03;1.55;;;;;;;;;;5031354;28;20492;-44
2023/03/07 04:03:48;;;;;;;4.75;2.15;;;;;;;;;;5031169;28;20060;-44
2023/03/07 04:06:17;;;;;;;5.43;2.25;;;;;;;;;;5031294;28;20033;-44
2023/03/07 04:08:45;;;;;;;4.47;2.10;;;;;;;;;;5031116;28;20040;-42
2023/03/07 04:11:12;;;;;;;7.32;2.13;;;;;;;;;;5031110;28;20091;-42
2023/03/07 04:13:40;;;;;;;3.58;2.05;;;;;;;;;;5031385;28;20025;-42
2023/03/07 04:16:07;;;;;;;6.47;1.83;;;;;;;;;;5046099;28;20368;-42
2023/03/07 04:18:34;;;;;;;4.88;1.95;;;;;;;;;;5031069;28;20041;-42
2023/03/07 04:21:02;;;;;;;3.78;1.50;;;;;;;;;;5030856;28;20032;-42
2023/03/07 04:23:28;;;;;;;5.13;2.08;;;;;;;;;;5031192;28;20026;-42
2023/03/07 04:25:56;;;;;;;3.58;2.05;;;;;;;;;;5031087;28;20487;-42
2023/03/07 04:28:24;;;;;;;4.75;2.20;;;;;;;;;;5030960;28;20029;-42
2023/03/07 04:30:55;;;;;;;5.97;2.28;;;;;;;;;;5030965;28;20037;-42
2023/03/07 04:33:22;;;;;;;5.43;1.85;;;;;;;;;;5030905;28;20116;-43
2023/03/07 04:35:49;;;;;;;6.75;2.33;;;;;;;;;;5031023;28;20034;-42
2023/03/07 04:38:16;;;;;;;5.75;2.28;;;;;;;;;;5031017;28;20021;-42
2023/03/07 04:40:43;;;;;;;4.63;1.98;;;;;;;;;;5030818;28;20022;-42
2023/03/07 04:43:09;;;;;;;4.20;1.50;;;;;;;;;;5030838;28;20545;-42
2023/03/07 04:45:37;;;;;;;6.43;1.50;;;;;;;;;;5030933;28;20025;-43
2023/03/07 04:48:04;;;;;;;4.80;1.60;;;;;;;;;;5030898;28;20060;-42
2023/03/07 04:50:31;;;;;;;4.18;1.50;;;;;;;;;;5030759;28;20053;-43
2023/03/07 04:52:58;;;;;;;4.35;1.50;;;;;;;;;;5030836;28;20056;-42
2023/03/07 04:55:25;;;;;;;5.53;1.70;;;;;;;;;;5030841;28;20034;-42
2023/03/07 04:57:52;;;;;;;4.95;1.58;;;;;;;;;;5031084;28;20033;-42
2023/03/07 05:00:19;;;;;;;3.53;1.50;;;;;;;;;;5034690;28;20127;-42
2023/03/07 05:02:47;;;;;;;4.75;1.73;;;;;;;;;;5034467;28;20094;-42
2023/03/07 05:05:14;;;;;;;3.80;1.40;;;;;;;;;;5034627;28;20448;-42
2023/03/07 05:07:41;;;;;;;5.63;1.30;;;;;;;;;;5034526;28;20030;-43
2023/03/07 05:10:08;;;;;;;6.10;1.20;;;;;;;;;;5034535;28;20045;-42
2023/03/07 05:12:35;;;;;;;4.43;1.42;;;;;;;;;;5034569;28;20488;-42
2023/03/07 05:15:02;;;;;;;4.38;1.40;;;;;;;;;;5034281;28;20037;-42
2023/03/07 05:17:30;;;;;;;6.60;1.52;;;;;;;;;;5034443;28;20100;-42
2023/03/07 05:19:57;;;;;;;9.15;1.40;;;;;;;;;;5034137;28;20033;-43
2023/03/07 05:22:24;;;;;;;2.72;1.30;;;;;;;;;;5034290;28;20040;-43
2023/03/07 05:24:51;;;;;;;4.95;1.30;;;;;;;;;;5034282;28;20037;-46
2023/03/07 05:27:18;;;;;;;1.90;1.02;;;;;;;;;;5034308;28;20102;-44
2023/03/07 05:29:45;;;;;;;5.85;1.45;;;;;;;;;;5034220;28;20044;-44
2023/03/07 05:32:12;;;;;;;6.47;1.38;;;;;;;;;;5034226;28;20025;-46
2023/03/07 05:34:39;;;;;;;3.60;1.40;;;;;;;;;;5034191;28;20403;-44
2023/03/07 05:37:06;;;;;;;5.10;1.20;;;;;;;;;;5034097;28;20072;-45
2023/03/07 05:39:33;;;;;;;2.75;1.10;;;;;;;;;;5033982;28;20040;-46
2023/03/07 05:42:00;;;;;;;4.15;1.30;;;;;;;;;;5033960;28;20021;-44
2023/03/07 05:44:27;;;;;;;5.60;1.30;;;;;;;;;;5033801;28;20087;-44
2023/03/07 05:46:53;;;;;;;6.82;1.33;;;;;;;;;;5033906;28;20037;-45
2023/03/07 05:49:20;;;;;;;7.80;1.48;;;;;;;;;;5033804;28;20028;-44
2023/03/07 05:51:47;;;;;;;3.22;1.30;;;;;;;;;;5033927;28;20065;-44
2023/03/07 05:54:14;;;;;;;4.10;1.20;;;;;;;;;;5033751;28;20021;-45
2023/03/07 05:56:41;;;;;;;8.90;1.40;;;;;;;;;;5034119;28;20032;-44
2023/03/07 05:59:11;;;;;;;4.57;1.60;;;;;;;;;;5033397;28;20120;-43
2023/03/07 06:01:39;;;;;;;6.55;1.50;;;;;;;;;;5032059;28;20048;-42
2023/03/07 06:04:05;;;;;;;4.32;1.50;;;;;;;;;;5033429;28;20053;-42
2023/03/07 06:06:32;;;;;;;5.13;1.52;;;;;;;;;;5033658;28;20712;-43
2023/03/07 06:08:59;;;;;;;3.83;1.63;;;;;;;;;;5033524;28;20103;-43
2023/03/07 06:11:26;;;;;;;5.28;1.50;;;;;;;;;;5032665;28;20145;-42
2023/03/07 06:13:54;;;;;;;6.78;1.75;;;;;;;;;;5033445;28;20029;-43
2023/03/07 06:16:21;;;;;;;5.10;1.77;;;;;;;;;;5033236;28;20458;-41
2023/03/07 06:18:48;;;;;;;7.35;1.50;;;;;;;;;;5033399;28;20025;-42
2023/03/07 06:21:17;;;;;;;6.28;1.55;;;;;;;;;;5033123;28;20039;-42
2023/03/07 06:23:44;;;;;;;6.18;1.90;;;;;;;;;;5033108;28;20073;-43
2023/03/07 06:26:11;;;;;;;5.18;1.40;;;;;;;;;;5033242;28;20056;-42
2023/03/07 06:28:39;;;;;;;3.75;1.20;;;;;;;;;;5033383;28;20039;-42
2023/03/07 06:31:12;;;;;;;5.38;1.55;;;;;;;;;;5033073;28;20032;-42
2023/03/07 06:33:39;;;;;;;4.53;1.63;;;;;;;;;;5033093;28;20056;-42
2023/03/07 06:36:07;;;;;;;3.55;1.30;;;;;;;;;;5032959;28;20083;-42
2023/03/07 06:38:35;;;;;;;4.35;1.60;;;;;;;;;;5033022;28;20075;-42
2023/03/07 06:41:02;;;;;;;3.70;1.25;;;;;;;;;;5032856;28;20682;-42
2023/03/07 06:43:29;;;;;;;3.45;1.23;;;;;;;;;;5032900;28;20480;-42
2023/03/07 06:45:56;;;;;;;3.05;1.20;;;;;;;;;;5032875;28;20025;-42
2023/03/07 06:48:23;;;;;;;2.20;1.27;;;;;;;;;;5032722;28;20021;-42
2023/03/07 06:50:50;;;;;;;9.18;1.60;;;;;;;;;;5032572;28;20148;-42
2023/03/07 06:53:17;;;;;;;7.57;1.38;;;;;;;;;;5032656;28;20510;-42
2023/03/07 06:55:48;;;;;;;7.15;1.63;;;;;;;;;;5032560;28;20030;-42
2023/03/07 06:58:15;;;;;;;5.22;1.30;;;;;;;;;;5032468;28;20442;-43
2023/03/07 07:00:42;;;;;;;8.52;1.80;;;;;;;;;;5032415;28;20104;-42
2023/03/07 07:03:12;;;;;;;8.05;1.52;;;;;;;;;;5032134;28;20549;-42
2023/03/07 07:05:39;;;;;;;5.80;1.40;;;;;;;;;;5032389;28;20030;-42
2023/03/07 07:08:06;;;;;;;7.25;1.80;;;;;;;;;;5032390;28;20033;-42
2023/03/07 07:10:33;;;;;;;4.68;1.50;;;;;;;;;;5032308;28;20025;-42
2023/03/07 07:13:00;;;;;;;3.17;1.25;;;;;;;;;;5032325;28;20041;-42
2023/03/07 07:15:27;;;;;;;6.68;1.40;;;;;;;;;;5032091;28;20068;-43
2023/03/07 07:17:54;;;;;;;5.40;1.30;;;;;;;;;;5032149;28;20026;-42
2023/03/07 07:20:21;;;;;;;3.65;1.48;;;;;;;;;;5032080;28;20171;-42
2023/03/07 07:22:48;;;;;;;3.92;1.15;;;;;;;;;;5031133;28;20045;-42
2023/03/07 07:25:15;;;;;;;3.22;1.10;;;;;;;;;;5032060;28;20390;-46
2023/03/07 07:27:42;;;;;;;6.70;1.20;;;;;;;;;;5031927;28;20029;-45
2023/03/07 07:30:09;;;;;;;2.97;1.25;;;;;;;;;;5031841;28;20025;-44
2023/03/07 07:32:36;;;;;;;4.35;1.10;;;;;;;;;;5031915;28;20037;-44
2023/03/07 07:35:03;;;;;;;6.30;1.65;;;;;;;;;;5031917;28;20036;-44
2023/03/07 07:37:30;;;;;;;4.70;1.45;;;;;;;;;;5031834;28;20025;-44
2023/03/07 07:39:57;;;;;;;3.42;1.35;;;;;;;;;;5031620;28;20030;-44
2023/03/07 07:42:24;;;;;;;5.82;1.50;;;;;;;;;;5031972;28;20044;-44
2023/03/07 07:48:00;;;;;;;4.30;1.40;;;;;;;;;;5033677;28;20028;-43
2023/03/07 07:50:27;;;;;;;4.78;1.40;;;;;;;;;;5031529;28;20029;-43
2023/03/07 07:52:54;;;;;;;8.38;1.63;;;;;;;;;;5031414;28;20032;-42
2023/03/07 07:55:23;;;;;;;4.22;1.40;;;;;;;;;;5046691;28;20038;-42
2023/03/07 07:57:51;;;;;;;6.28;1.92;;;;;;;;;;5031418;28;20033;-44
2023/03/07 08:00:22;;;;;;;6.03;1.70;;;;;;;;;;5031296;28;20467;-42
2023/03/07 08:02:49;;;;;;;4.22;1.30;;;;;;;;;;5031090;28;20054;-42
2023/03/07 08:05:16;;;;;;;4.82;1.42;;;;;;;;;;5031459;28;20491;-42
2023/03/07 08:07:43;;;;;;;4.88;1.52;;;;;;;;;;5031354;28;20565;-43
2023/03/07 08:10:14;;;;;;;6.53;1.50;;;;;;;;;;5031265;28;20025;-42
2023/03/07 08:12:42;;;;;;;5.00;1.48;;;;;;;;;;5031211;28;20041;-42
2023/03/07 08:15:10;;;;;;;4.85;1.45;;;;;;;;;;5031171;28;20110;-42
2023/03/07 08:17:36;;;;;;;6.93;1.92;;;;;;;;;;5031206;28;20028;-42
2023/03/07 08:20:08;;;;;;;10.90;4.07;;;;;;;;;;5046362;28;20029;-44
2023/03/07 08:22:36;;;;;;;12.30;4.63;;;;;;;;;;5030995;28;20033;-44
2023/03/07 08:25:03;;;;;;;15.30;5.75;;;;;;;;;;5031061;28;20763;-44
2023/03/07 08:27:30;;;;;;;12.48;5.47;;;;;;;;;;5031108;28;20403;-44
2023/03/07 08:29:58;;;;;;;6.97;3.58;;;;;;;;;;5031124;28;20030;-44
2023/03/07 08:32:24;;;;;;;10.20;3.22;;;;;;;;;;5030999;28;20047;-44
2023/03/07 08:34:52;;;;;;;7.25;2.35;;;;;;;;;;5030731;28;20150;-44
2023/03/07 08:37:19;;;;;;;7.00;2.58;;;;;;;;;;5031067;28;20029;-45
2023/03/07 08:39:46;;;;;;;4.03;1.88;;;;;;;;;;5030870;28;20037;-44
2023/03/07 08:42:13;;;;;;;6.82;2.08;;;;;;;;;;5030911;28;20072;-44
2023/03/07 08:44:40;;;;;;;6.80;1.95;;;;;;;;;;5030943;28;20079;-44
2023/03/07 08:47:07;;;;;;;4.07;1.52;;;;;;;;;;5030867;28;20492;-44
2023/03/07 08:49:34;;;;;;;5.35;1.70;;;;;;;;;;5030840;28;20029;-44
2023/03/07 08:52:01;;;;;;;6.32;1.80;;;;;;;;;;5030848;28;20487;-44
2023/03/07 08:54:28;;;;;;;6.03;2.25;;;;;;;;;;5030782;28;20456;-44
2023/03/07 08:56:55;;;;;;;5.63;1.38;;;;;;;;;;5030730;28;20034;-44
2023/03/07 08:59:22;;;;;;;6.07;1.63;;;;;;;;;;5030684;28;20491;-44
2023/03/07 09:01:49;;;;;;;9.65;1.60;;;;;;;;;;5030696;28;20034;-44
2023/03/07 09:04:16;;;;;;;4.47;1.50;;;;;;;;;;5029192;28;20056;-46
2023/03/07 09:06:43;;;;;;;5.72;1.60;;;;;;;;;;5030633;28;20034;-44
2023/03/07 09:09:10;;;;;;;2.95;1.33;;;;;;;;;;5030521;28;20034;-44
2023/03/07 09:11:36;;;;;;;3.30;1.85;;;;;;;;;;5045932;28;20403;-44
2023/03/07 09:14:03;;;;;;;6.78;1.80;;;;;;;;;;5030483;28;20029;-44
2023/03/07 09:16:30;;;;;;;6.40;1.83;;;;;;;;;;5030642;28;20022;-45
2023/03/07 09:18:57;;;;;;;3.72;1.30;;;;;;;;;;5030451;28;20137;-45
2023/03/07 09:21:24;;;;;;;4.60;1.70;;;;;;;;;;5025794;28;20077;-44
2023/03/07 09:23:51;;;;;;;4.80;1.50;;;;;;;;;;5010789;28;20034;-44
2023/03/07 09:26:18;;;;;;;4.70;1.52;;;;;;;;;;5013327;28;20037;-43
2023/03/07 09:28:45;;;;;;;2.22;1.20;;;;;;;;;;5013167;28;20041;-43
2023/03/07 09:31:13;;;;;;;4.28;1.23;;;;;;;;;;5010482;28;20030;-44
2023/03/07 09:33:41;;;;;;;6.25;1.80;;;;;;;;;;5020010;28;20026;-40
2023/03/07 09:36:09;;;;;;;5.47;1.55;;;;;;;;;;5017302;28;20372;-42
2023/03/07 09:38:36;;;;;;;4.57;1.50;;;;;;;;;;5020691;28;20030;-43
2023/03/07 09:41:09;;;;;;;8.93;1.85;;;;;;;;;;5018068;28;20400;-42
2023/03/07 09:43:44;;;;;;;4.15;1.60;;;;;;;;;;5013920;28;20038;-41
2023/03/07 09:46:27;;;;;;;6.10;1.75;;;;;;;;;;5027561;28;20033;-42
2023/03/07 09:48:57;;;;;;;4.05;1.42;;;;;;;;;;5021942;28;20553;-42
2023/03/07 09:51:36;;;;;;;4.10;1.48;;;;;;;;;;5023904;28;20032;-42
2023/03/07 09:54:06;;;;;;;5.63;1.40;;;;;;;;;;5024488;28;20383;-42
2023/03/07 09:56:37;;;;;;;8.85;1.42;;;;;;;;;;5021444;28;20026;-40
2023/03/07 09:59:23;;;;;;;6.15;1.73;;;;;;;;;;5013711;28;20037;-40
2023/03/07 10:02:01;;;;;;;7.00;1.58;;;;;;;;;;5017016;28;20045;-42
2023/03/07 10:04:32;;;;;;;4.72;1.30;;;;;;;;;;5013895;28;20042;-40
2023/03/07 10:06:59;;;;;;;7.28;2.05;;;;;;;;;;5023103;28;20033;-42
2023/03/07 10:09:27;;;;;;;8.15;1.80;;;;;;;;;;5024680;28;20101;-40
2023/03/07 10:12:04;;;;;;;8.38;2.10;;;;;;;;;;5021968;28;20026;-42
2023/03/07 10:14:41;;;;;;;6.05;1.90;;;;;;;;;;5031767;28;20029;-43
2023/03/07 10:17:34;;;;;;;4.95;2.08;;;;;;;;;;5026586;28;20032;-40
2023/03/07 10:20:07;;;;;;;9.07;3.13;;;;;;;;;;5022436;28;20053;-40
2023/03/07 10:22:54;;;;;;;10.35;5.25;;;;;;;;;;5029569;28;20038;-43
2023/03/07 10:25:50;;;;;;;21.23;10.68;;;;;;;;;;5027693;28;20116;-39
2023/03/07 10:28:17;;;;;;;15.43;7.95;;;;;;;;;;4973052;28;20039;-42
2023/03/07 10:30:45;;;;;;;11.00;4.80;;;;;;;;;;5021877;28;20030;-42
2023/03/07 10:33:20;;;;;;;14.60;6.35;;;;;;;;;;5025453;28;20068;-44
2023/03/07 10:35:59;;;;;;;15.20;7.47;;;;;;;;;;5021096;28;20021;-43
2023/03/07 10:38:35;;;;;;;11.45;5.95;;;;;;;;;;5015793;28;20030;-44
2023/03/07 10:41:11;;;;;;;12.23;5.00;;;;;;;;;;5021164;28;20034;-41
2023/03/07 10:43:39;;;;;;;10.20;4.55;;;;;;;;;;5020928;28;20250;-41
2023/03/07 10:46:12;;;;;;;19.45;4.88;;;;;;;;;;5017131;28;20061;-43
2023/03/07 10:48:41;;;;;;;10.52;3.60;;;;;;;;;;5012706;28;20404;-44
2023/03/07 10:51:20;;;;;;;7.05;2.90;;;;;;;;;;5012906;28;20034;-43
2023/03/07 10:53:47;;;;;;;7.45;2.67;;;;;;;;;;5012860;28;20030;-43
2023/03/07 10:56:15;;;;;;;6.22;2.70;;;;;;;;;;5012760;28;20018;-44
2023/03/07 10:59:02;;;;;;;7.53;2.22;;;;;;;;;;5012654;28;20399;-44
2023/03/07 11:01:30;;;;;;;4.60;2.08;;;;;;;;;;5012846;28;20097;-43
2023/03/07 11:03:56;;;;;;;13.48;2.35;;;;;;;;;;5012615;28;20412;-43
2023/03/07 11:06:26;;;;;;;2.97;1.83;;;;;;;;;;5012571;28;20064;-43
2023/03/07 11:08:55;;;;;;;5.93;2.20;;;;;;;;;;5012495;28;20029;-43
2023/03/07 11:11:31;;;;;;;6.07;1.60;;;;;;;;;;5012475;28;20156;-43
2023/03/07 11:14:09;;;;;;;3.70;1.65;;;;;;;;;;5012637;28;20026;-43
2023/03/07 11:16:54;;;;;;;6.60;1.45;;;;;;;;;;5012394;28;20028;-45
2023/03/07 11:19:28;;;;;;;5.07;1.42;;;;;;;;;;5012370;28;20026;-44
2023/03/07 11:21:55;;;;;;;20.50;1.60;;;;;;;;;;5012289;28;20026;-43
2023/03/07 11:24:27;;;;;;;2.95;1.40;;;;;;;;;;5012150;28;20554;-44
2023/03/07 11:26:55;;;;;;;7.88;1.52;;;;;;;;;;5012289;28;20022;-44
2023/03/07 11:29:22;;;;;;;2.90;1.30;;;;;;;;;;5012229;28;20108;-44
2023/03/07 11:31:51;;;;;;;5.63;1.52;;;;;;;;;;5012079;28;20399;-43
2023/03/07 11:34:27;;;;;;;9.00;1.42;;;;;;;;;;5012208;28;20042;-44
2023/03/07 11:37:03;;;;;;;3.47;1.25;;;;;;;;;;5012158;28;20022;-44
2023/03/07 11:39:30;;;;;;;4.97;1.30;;;;;;;;;;5011964;28;20484;-42
2023/03/07 11:42:02;;;;;;;4.53;1.20;;;;;;;;;;5011917;28;20030;-42
2023/03/07 11:44:29;;;;;;;;;;;;;;;;;;5012400;28;20026;-41
2023/03/07 11:47:11;;;;;;;2.72;1.40;;;;;;;;;;5011929;28;19906;-42
2023/03/07 11:49:53;;;;;;;4.38;1.13;;;;;;;;;;5011816;28;20068;-43
2023/03/07 11:52:23;;;;;;;2.08;1.10;;;;;;;;;;5011957;28;20030;-41
2023/03/07 11:54:53;;;;;;;2.80;0.98;;;;;;;;;;5011811;28;20102;-41
2023/03/07 11:57:43;;;;;;;4.35;1.30;;;;;;;;;;5011831;28;20049;-41
2023/03/07 12:00:32;;;;;;;5.57;1.10;;;;;;;;;;4984419;28;20034;-44
2023/03/07 12:03:08;;;;;;;4.97;0.98;;;;;;;;;;5011500;28;20057;-41
2023/03/07 12:05:44;;;;;;;4.18;1.23;;;;;;;;;;5011592;28;20025;-41
2023/03/07 12:08:34;;;;;;;4.88;1.02;;;;;;;;;;5011202;28;20038;-42
2023/03/07 12:11:28;;;;;;;2.20;0.85;;;;;;;;;;4997240;28;20038;-44
2023/03/07 12:13:55;;;;;;;3.08;1.10;;;;;;;;;;5020442;28;20026;-43
2023/03/07 12:16:36;;;;;;;2.65;0.90;;;;;;;;;;5031134;28;20030;-43
2023/03/07 12:19:25;;;;;;;5.15;0.98;;;;;;;;;;5023716;28;20065;-44
2023/03/07 12:21:52;;;;;;;5.50;1.10;;;;;;;;;;5020710;28;20147;-41
2023/03/07 12:24:22;;;;;;;4.07;0.88;;;;;;;;;;5020024;28;20102;-42
2023/03/07 12:27:01;;;;;;;4.43;0.93;;;;;;;;;;5018787;28;20158;-42
2023/03/07 12:29:28;;;;;;;1.42;0.75;;;;;;;;;;5018686;28;20472;-43
2023/03/07 12:31:59;;;;;;;4.20;1.05;;;;;;;;;;5020361;28;20048;-42
2023/03/07 12:34:31;;;;;;;4.90;0.88;;;;;;;;;;5020648;28;20480;-44
2023/03/07 12:37:18;;;;;;;2.95;0.88;;;;;;;;;;5020728;28;20026;-42
2023/03/07 12:40:23;;;;;;;2.90;0.80;;;;;;;;;;5028990;28;20063;-43
2023/03/07 12:42:56;;;;;;;4.13;0.90;;;;;;;;;;4989078;28;20035;-44
2023/03/07 12:45:24;;;;;;;3.00;0.75;;;;;;;;;;4989128;28;20509;-44
2023/03/07 12:47:58;;;;;;;1.80;0.65;;;;;;;;;;5007310;28;20059;-43
2023/03/07 12:50:31;;;;;;;2.33;0.60;;;;;;;;;;5020694;28;20036;-41
2023/03/07 12:53:07;;;;;;;2.28;0.70;;;;;;;;;;5028249;28;20030;-44
2023/03/07 12:55:40;;;;;;;4.90;0.60;;;;;;;;;;5020857;28;20022;-43
2023/03/07 12:58:25;;;;;;;6.55;0.98;;;;;;;;;;5019970;28;20383;-44
2023/03/07 13:00:58;;;;;;;1.45;0.50;;;;;;;;;;5020551;28;20032;-43
2023/03/07 13:03:43;;;;;;;3.97;0.65;;;;;;;;;;5019321;28;20131;-43
2023/03/07 13:06:13;;;;;;;1.25;0.50;;;;;;;;;;5020262;28;20459;-41
2023/03/07 13:08:42;;;;;;;1.98;0.60;;;;;;;;;;5019127;28;20030;-43
2023/03/07 13:11:16;;;;;;;4.43;0.65;;;;;;;;;;5020377;28;20080;-43
2023/03/07 13:13:43;;;;;;;5.63;0.68;;;;;;;;;;5019156;28;20029;-42
2023/03/07 13:16:31;;;;;;;2.22;0.80;;;;;;;;;;5020357;28;20033;-43
2023/03/07 13:19:16;;;;;;;3.60;0.70;;;;;;;;;;5021054;28;20193;-41
2023/03/07 13:21:44;;;;;;;2.00;0.50;;;;;;;;;;5024814;28;20077;-41
2023/03/07 13:24:29;;;;;;;2.80;0.60;;;;;;;;;;5023855;28;20037;-44
2023/03/07 13:26:56;;;;;;;7.85;0.85;;;;;;;;;;5014578;28;20026;-44
2023/03/07 13:29:41;;;;;;;1.42;0.60;;;;;;;;;;5014415;28;20487;-44
2023/03/07 13:32:43;;;;;;;3.22;0.65;;;;;;;;;;5014525;28;20025;-43
2023/03/07 13:35:10;;;;;;;1.10;0.63;;;;;;;;;;4972623;28;20039;-43
2023/03/07 13:37:48;;;;;;;3.60;0.70;;;;;;;;;;5010916;28;20707;-41
2023/03/07 13:40:27;;;;;;;2.70;0.55;;;;;;;;;;5022338;28;20026;-42
2023/03/07 13:42:55;;;;;;;0.63;0.40;;;;;;;;;;5022247;28;20816;-41
2023/03/07 13:45:40;;;;;;;2.40;0.70;;;;;;;;;;5023982;28;20494;-42
2023/03/07 13:48:35;;;;;;;4.00;0.77;;;;;;;;;;5023762;28;20026;-41
2023/03/07 13:51:02;;;;;;;3.03;0.60;;;;;;;;;;5010144;28;20034;-42
2023/03/07 13:53:29;;;;;;;1.83;0.73;;;;;;;;;;5020255;28;20104;-41
2023/03/07 13:56:14;;;;;;;1.48;0.50;;;;;;;;;;5013933;28;20038;-41
2023/03/07 13:58:44;;;;;;;2.22;0.57;;;;;;;;;;5017454;28;20069;-43
2023/03/07 14:01:16;;;;;;;2.05;0.70;;;;;;;;;;5022585;28;20065;-43
2023/03/07 14:03:59;;;;;;;2.33;0.65;;;;;;;;;;5022708;28;20120;-41
2023/03/07 14:06:34;;;;;;;2.25;0.70;;;;;;;;;;5023218;28;20542;-43
2023/03/07 14:09:03;;;;;;;3.30;0.50;;;;;;;;;;5023494;28;20101;-43
2023/03/07 14:11:33;;;;;;;0.73;0.50;;;;;;;;;;5022234;28;20034;-41
2023/03/07 14:14:00;;;;;;;3.10;0.60;;;;;;;;;;5022294;28;20495;-41
2023/03/07 14:16:46;;;;;;;2.42;0.50;;;;;;;;;;5023842;28;20042;-44
2023/03/07 14:19:28;;;;;;;1.63;0.50;;;;;;;;;;5022371;28;20392;-42
2023/03/07 14:21:59;;;;;;;1.92;0.70;;;;;;;;;;5022753;28;20030;-42
2023/03/07 14:24:46;;;;;;;0.68;0.40;;;;;;;;;;5021742;28;20083;-43
2023/03/07 14:27:15;;;;;;;2.42;0.50;;;;;;;;;;5005139;28;20534;-42
2023/03/07 14:29:49;;;;;;;1.25;0.38;;;;;;;;;;5023598;28;20511;-44
2023/03/07 14:32:24;;;;;;;1.55;0.40;;;;;;;;;;5022374;28;20042;-44
2023/03/07 14:34:52;;;;;;;1.98;0.52;;;;;;;;;;5022002;28;20085;-42
2023/03/07 14:37:22;;;;;;;2.67;0.47;;;;;;;;;;5022020;28;20079;-44
2023/03/07 14:39:52;;;;;;;1.10;0.52;;;;;;;;;;5021159;28;20032;-44
2023/03/07 14:42:22;;;;;;;5.88;0.57;;;;;;;;;;5021939;28;20038;-44
2023/03/07 14:45:01;;;;;;;0.80;0.50;;;;;;;;;;5032916;28;20022;-41
2023/03/07 14:47:46;;;;;;;0.88;0.50;;;;;;;;;;5032755;28;20500;-41
2023/03/07 14:50:13;;;;;;;1.58;0.40;;;;;;;;;;5042841;28;20483;-42
2023/03/07 14:52:40;;;;;;;2.33;0.70;;;;;;;;;;5012985;28;20026;-41
2023/03/07 14:55:14;;;;;;;1.80;0.57;;;;;;;;;;5012948;28;20029;-42
2023/03/07 14:57:45;;;;;;;0.85;0.55;;;;;;;;;;5012889;28;20026;-41
2023/03/07 15:00:22;;;;;;;1.95;0.60;;;;;;;;;;5012674;28;20452;-41
2023/03/07 15:02:50;;;;;;;1.63;0.80;;;;;;;;;;5012529;28;20060;-42
2023/03/07 15:05:27;;;;;;;0.55;0.47;;;;;;;;;;5012687;28;20030;-41